Time,TemperatureF,DewpointF,PressureIn,WindDirection,WindDirectionDegrees,WindSpeedMPH,WindSpeedGustMPH,Humidity,HourlyPrecipIn,Conditions,Clouds,dailyrainin,SoftwareType,DateUTC
2011-06-22 00:02:00,68.2,32.6,29.98,ENE,67,2.7,6.3,27,0.00,,,0.00,open2300-1.11,2011-06-22 06:02:00,
2011-06-22 00:12:00,67.8,33.3,29.98,East,90,5.6,6.5,28,0.00,,,0.00,open2300-1.11,2011-06-22 06:12:00,
2011-06-22 00:22:00,67.6,33.1,29.99,East,90,4.2,5.6,28,0.00,,,0.00,open2300-1.11,2011-06-22 06:22:00,
2011-06-22 00:32:00,67.3,32.8,29.99,East,90,3.4,4.2,28,0.00,,,0.00,open2300-1.11,2011-06-22 06:32:00,
2011-06-22 00:42:00,67.3,32.8,29.99,East,90,4.0,7.4,28,0.00,,,0.00,open2300-1.11,2011-06-22 06:42:00,
2011-06-22 00:52:00,66.9,33.5,29.99,East,90,5.6,11.0,29,0.00,,,0.00,open2300-1.11,2011-06-22 06:52:00,
2011-06-22 01:03:00,66.7,33.4,29.98,ESE,112,4.5,7.8,29,0.00,,,0.00,open2300-1.11,2011-06-22 07:03:00,
2011-06-22 01:12:00,66.2,34.0,29.98,East,90,4.7,6.5,30,0.00,,,0.00,open2300-1.11,2011-06-22 07:12:00,
2011-06-22 01:22:00,65.8,33.7,29.99,East,90,6.3,8.9,30,0.00,,,0.00,open2300-1.11,2011-06-22 07:22:00,
2011-06-22 01:32:00,64.9,33.6,29.99,ESE,112,4.7,6.9,31,0.00,,,0.00,open2300-1.11,2011-06-22 07:32:00,
2011-06-22 01:42:00,64.6,34.0,29.99,East,90,5.1,7.8,32,0.00,,,0.00,open2300-1.11,2011-06-22 07:42:00,
2011-06-22 01:52:00,64.2,33.6,29.98,ENE,67,1.3,6.9,32,0.00,,,0.00,open2300-1.11,2011-06-22 07:52:00,
2011-06-22 02:02:00,64.0,33.5,29.99,East,90,6.7,6.7,32,0.00,,,0.00,open2300-1.11,2011-06-22 08:02:00,
2011-06-22 02:12:00,63.7,33.9,29.99,East,90,4.5,8.3,33,0.00,,,0.00,open2300-1.11,2011-06-22 08:12:00,
2011-06-22 02:22:00,63.3,33.5,29.99,East,90,1.1,9.2,33,0.00,,,0.00,open2300-1.11,2011-06-22 08:22:00,
2011-06-22 02:32:00,63.0,33.2,29.98,East,90,4.0,5.8,33,0.00,,,0.00,open2300-1.11,2011-06-22 08:32:00,
2011-06-22 02:42:00,63.0,33.2,29.98,East,90,0.0,6.0,33,0.00,,,0.00,open2300-1.11,2011-06-22 08:42:00,
2011-06-22 02:52:00,63.0,33.9,29.97,East,90,4.7,5.6,34,0.00,,,0.00,open2300-1.11,2011-06-22 08:52:00,
2011-06-22 03:02:00,62.8,33.8,29.97,East,90,3.8,5.8,34,0.00,,,0.00,open2300-1.11,2011-06-22 09:02:00,
2011-06-22 03:12:00,62.4,33.5,29.97,East,90,5.1,7.2,34,0.00,,,0.00,open2300-1.11,2011-06-22 09:12:00,
2011-06-22 03:22:00,61.9,33.0,29.97,ESE,112,3.1,9.4,34,0.00,,,0.00,open2300-1.11,2011-06-22 09:22:00,
2011-06-22 03:32:00,61.5,33.4,29.97,ENE,67,4.7,9.8,35,0.00,,,0.00,open2300-1.11,2011-06-22 09:32:00,
2011-06-22 03:42:00,61.3,33.2,29.97,ENE,67,11.0,11.0,35,0.00,,,0.00,open2300-1.11,2011-06-22 09:42:00,
2011-06-22 03:52:00,61.2,33.8,29.97,East,90,7.8,11.0,36,0.00,,,0.00,open2300-1.11,2011-06-22 09:52:00,
2011-06-22 04:02:00,61.0,33.6,29.98,ENE,67,3.8,7.8,36,0.00,,,0.00,open2300-1.11,2011-06-22 10:02:00,
2011-06-22 04:12:00,61.0,33.6,29.98,East,90,8.5,8.5,36,0.00,,,0.00,open2300-1.11,2011-06-22 10:12:00,
2011-06-22 04:22:00,61.0,33.6,29.98,East,90,7.2,8.5,36,0.00,,,0.00,open2300-1.11,2011-06-22 10:22:00,
2011-06-22 04:32:00,61.0,33.6,29.97,ENE,67,8.5,8.5,36,0.00,,,0.00,open2300-1.11,2011-06-22 10:32:00,
2011-06-22 04:42:00,61.0,33.6,29.97,East,90,3.8,8.5,36,0.00,,,0.00,open2300-1.11,2011-06-22 10:42:00,
2011-06-22 04:52:00,60.8,33.4,29.98,East,90,1.8,6.3,36,0.00,,,0.00,open2300-1.11,2011-06-22 10:52:00,
2011-06-22 05:02:00,60.4,33.8,29.98,ESE,112,7.2,9.4,37,0.00,,,0.00,open2300-1.11,2011-06-22 11:02:00,
2011-06-22 05:12:00,60.1,34.2,29.98,ENE,67,10.1,10.1,38,0.00,,,0.00,open2300-1.11,2011-06-22 11:12:00,
2011-06-22 05:22:00,59.7,33.9,29.99,NE,45,5.8,11.2,38,0.00,,,0.00,open2300-1.11,2011-06-22 11:22:00,
2011-06-22 05:32:00,59.4,33.6,29.99,East,90,5.6,9.8,38,0.00,,,0.00,open2300-1.11,2011-06-22 11:32:00,
2011-06-22 05:42:00,58.8,33.8,29.99,East,90,3.4,8.9,39,0.00,,,0.00,open2300-1.11,2011-06-22 11:42:00,
2011-06-22 05:52:00,58.8,33.8,29.99,East,90,4.9,8.5,39,0.00,,,0.00,open2300-1.11,2011-06-22 11:52:00,
2011-06-22 06:02:00,58.6,33.7,29.99,East,90,6.0,8.1,39,0.00,,,0.00,open2300-1.11,2011-06-22 12:02:00,
2011-06-22 06:12:00,58.5,33.5,30.00,East,90,3.4,9.6,39,0.00,,,0.00,open2300-1.11,2011-06-22 12:12:00,
2011-06-22 06:22:00,58.3,33.3,30.00,ESE,112,6.0,9.4,39,0.00,,,0.00,open2300-1.11,2011-06-22 12:22:00,
2011-06-22 06:32:00,58.1,33.2,30.00,ENE,67,4.0,6.7,39,0.00,,,0.00,open2300-1.11,2011-06-22 12:32:00,
2011-06-22 06:42:00,58.1,33.2,30.01,ENE,67,6.3,6.3,39,0.00,,,0.00,open2300-1.11,2011-06-22 12:42:00,
2011-06-22 06:52:00,58.3,33.3,30.01,East,90,0.0,7.8,39,0.00,,,0.00,open2300-1.11,2011-06-22 12:52:00,
2011-06-22 07:02:00,58.6,33.7,30.02,SE,135,0.0,2.0,39,0.00,,,0.00,open2300-1.11,2011-06-22 13:02:00,
2011-06-22 07:12:00,58.8,33.1,30.02,NE,45,0.0,0.0,38,0.00,,,0.00,open2300-1.11,2011-06-22 13:12:00,
2011-06-22 07:22:00,59.4,33.6,30.02,ESE,112,0.0,0.0,38,0.00,,,0.00,open2300-1.11,2011-06-22 13:22:00,
2011-06-22 07:32:00,60.1,33.5,30.02,SSE,157,0.0,0.0,37,0.00,,,0.00,open2300-1.11,2011-06-22 13:32:00,
2011-06-22 07:42:00,60.6,34.0,30.02,East,90,0.0,1.8,37,0.00,,,0.00,open2300-1.11,2011-06-22 13:42:00,
2011-06-22 07:52:00,61.5,34.1,30.02,NE,45,0.0,0.9,36,0.00,,,0.00,open2300-1.11,2011-06-22 13:52:00,
2011-06-22 08:02:00,62.8,35.2,30.02,ESE,112,0.0,1.6,36,0.00,,,0.00,open2300-1.11,2011-06-22 14:02:00,
2011-06-22 08:12:00,63.5,35.2,30.02,East,90,0.0,0.0,35,0.00,,,0.00,open2300-1.11,2011-06-22 14:12:00,
2011-06-22 08:22:00,64.4,35.2,30.02,ENE,67,0.0,0.0,34,0.00,,,0.00,open2300-1.11,2011-06-22 14:22:00,
2011-06-22 08:32:00,65.5,35.5,30.02,ENE,67,0.0,3.1,33,0.00,,,0.00,open2300-1.11,2011-06-22 14:32:00,
2011-06-22 08:42:00,66.4,36.3,30.02,East,90,0.0,0.9,33,0.00,,,0.00,open2300-1.11,2011-06-22 14:42:00,
2011-06-22 08:52:00,67.6,36.6,30.02,SSE,157,0.0,0.0,32,0.00,,,0.00,open2300-1.11,2011-06-22 14:52:00,
2011-06-22 09:02:00,68.9,37.0,30.02,SE,135,0.0,4.0,31,0.00,,,0.00,open2300-1.11,2011-06-22 15:02:00,
2011-06-22 09:12:00,70.0,37.2,30.01,SE,135,3.6,3.6,30,0.00,,,0.00,open2300-1.11,2011-06-22 15:12:00,
2011-06-22 09:22:00,70.9,38.0,30.02,SE,135,0.0,3.6,30,0.00,,,0.00,open2300-1.11,2011-06-22 15:22:00,
2011-06-22 09:32:00,72.1,38.1,30.01,SSE,157,0.0,0.0,29,0.00,,,0.00,open2300-1.11,2011-06-22 15:32:00,
2011-06-22 09:42:00,73.2,37.9,30.01,SE,135,0.0,1.3,28,0.00,,,0.00,open2300-1.11,2011-06-22 15:42:00,
2011-06-22 09:52:00,74.3,37.8,30.00,East,90,0.0,0.0,27,0.00,,,0.00,open2300-1.11,2011-06-22 15:52:00,
2011-06-22 10:02:00,75.2,36.6,30.01,South,180,0.0,2.7,25,0.00,,,0.00,open2300-1.11,2011-06-22 16:02:00,
2011-06-22 10:12:00,76.1,38.4,30.01,South,180,0.0,0.0,26,0.00,,,0.00,open2300-1.11,2011-06-22 16:12:00,
2011-06-22 10:22:00,77.2,38.3,30.00,South,180,0.0,0.0,25,0.00,,,0.00,open2300-1.11,2011-06-22 16:22:00,
2011-06-22 10:32:00,78.1,37.9,30.00,SE,135,0.0,0.9,24,0.00,,,0.00,open2300-1.11,2011-06-22 16:32:00,
2011-06-22 10:42:00,78.4,40.3,30.00,NNW,337,0.7,4.7,26,0.00,,,0.00,open2300-1.11,2011-06-22 16:42:00,
2011-06-22 10:52:00,78.8,40.6,30.01,WSW,247,0.0,1.8,26,0.00,,,0.00,open2300-1.11,2011-06-22 16:52:00,
2011-06-22 11:02:00,79.3,39.0,30.01,WNW,292,0.0,0.0,24,0.00,,,0.00,open2300-1.11,2011-06-22 17:02:00,
2011-06-22 11:12:00,79.7,41.4,30.01,West,270,0.0,0.0,26,0.00,,,0.00,open2300-1.11,2011-06-22 17:12:00,
2011-06-22 11:22:00,80.1,38.6,30.00,West,270,0.0,1.6,23,0.00,,,0.00,open2300-1.11,2011-06-22 17:22:00,
2011-06-22 11:32:00,80.6,40.1,30.00,WNW,292,0.0,2.9,24,0.00,,,0.00,open2300-1.11,2011-06-22 17:32:00,
2011-06-22 11:42:00,81.7,40.0,30.00,West,270,0.0,2.9,23,0.00,,,0.00,open2300-1.11,2011-06-22 17:42:00,
2011-06-22 11:52:00,82.2,40.4,30.00,West,270,0.0,2.0,23,0.00,,,0.00,open2300-1.11,2011-06-22 17:52:00,
2011-06-22 12:02:00,82.8,39.8,29.99,NNW,337,0.0,1.8,22,0.00,,,0.00,open2300-1.11,2011-06-22 18:02:00,
2011-06-22 12:12:00,83.8,40.7,29.99,NW,315,0.0,3.1,22,0.00,,,0.00,open2300-1.11,2011-06-22 18:12:00,
2011-06-22 12:22:00,84.0,39.7,30.00,WNW,292,0.0,3.4,21,0.00,,,0.00,open2300-1.11,2011-06-22 18:22:00,
2011-06-22 12:32:00,84.9,40.5,29.99,WNW,292,0.0,1.8,21,0.00,,,0.00,open2300-1.11,2011-06-22 18:32:00,
2011-06-22 12:42:00,85.3,39.7,29.99,WSW,247,3.4,3.4,20,0.00,,,0.00,open2300-1.11,2011-06-22 18:42:00,
2011-06-22 12:52:00,85.8,40.1,29.99,WNW,292,0.0,4.7,20,0.00,,,0.00,open2300-1.11,2011-06-22 18:52:00,
2011-06-22 13:02:00,86.7,40.9,29.99,WSW,247,3.1,3.1,20,0.00,,,0.00,open2300-1.11,2011-06-22 19:02:00,
2011-06-22 13:12:00,87.1,39.5,29.98,SW,225,0.0,3.1,19,0.00,,,0.00,open2300-1.11,2011-06-22 19:12:00,
2011-06-22 13:22:00,87.4,41.6,29.98,West,270,0.0,0.9,20,0.00,,,0.00,open2300-1.11,2011-06-22 19:22:00,
2011-06-22 13:32:00,88.0,40.3,29.98,NNW,337,0.0,0.0,19,0.00,,,0.00,open2300-1.11,2011-06-22 19:32:00,
2011-06-22 13:42:00,88.5,40.7,29.98,WNW,292,0.0,4.0,19,0.00,,,0.00,open2300-1.11,2011-06-22 19:42:00,
2011-06-22 13:52:00,88.9,39.3,29.98,West,270,0.0,0.0,18,0.00,,,0.00,open2300-1.11,2011-06-22 19:52:00,
2011-06-22 14:02:00,89.4,39.7,29.97,WSW,247,0.4,0.4,18,0.00,,,0.00,open2300-1.11,2011-06-22 20:02:00,
2011-06-22 14:12:00,90.0,38.4,29.97,WNW,292,0.0,2.5,17,0.00,,,0.00,open2300-1.11,2011-06-22 20:12:00,
2011-06-22 14:22:00,90.3,38.7,29.97,ENE,67,1.1,1.1,17,0.00,,,0.00,open2300-1.11,2011-06-22 20:22:00,
2011-06-22 14:32:00,90.5,37.1,29.97,WSW,247,0.0,1.3,16,0.00,,,0.00,open2300-1.11,2011-06-22 20:32:00,
2011-06-22 14:42:00,90.9,37.4,29.96,WSW,247,0.0,3.8,16,0.00,,,0.00,open2300-1.11,2011-06-22 20:42:00,
2011-06-22 14:52:00,91.2,35.9,29.97,NE,45,0.0,0.0,15,0.00,,,0.00,open2300-1.11,2011-06-22 20:52:00,
2011-06-22 15:02:00,91.6,37.9,29.96,NW,315,0.0,4.0,16,0.00,,,0.00,open2300-1.11,2011-06-22 21:02:00,
2011-06-22 15:12:00,91.9,36.5,29.96,SSW,202,0.0,0.0,15,0.00,,,0.00,open2300-1.11,2011-06-22 21:12:00,
2011-06-22 15:22:00,92.1,36.6,29.96,WSW,247,0.0,0.0,15,0.00,,,0.00,open2300-1.11,2011-06-22 21:22:00,
2011-06-22 15:32:00,92.1,34.8,29.96,WNW,292,0.0,0.0,14,0.00,,,0.00,open2300-1.11,2011-06-22 21:32:00,
2011-06-22 15:42:00,91.9,32.9,29.95,WSW,247,0.4,3.1,13,0.00,,,0.00,open2300-1.11,2011-06-22 21:42:00,
2011-06-22 15:52:00,92.1,34.8,29.96,West,270,1.1,1.1,14,0.00,,,0.00,open2300-1.11,2011-06-22 21:52:00,
2011-06-22 16:02:00,92.5,33.3,29.95,West,270,0.0,1.1,13,0.00,,,0.00,open2300-1.11,2011-06-22 22:02:00,
2011-06-22 16:12:00,92.5,33.3,29.95,WSW,247,4.7,4.7,13,0.00,,,0.00,open2300-1.11,2011-06-22 22:12:00,
2011-06-22 16:22:00,92.1,33.1,29.95,WSW,247,0.0,4.9,13,0.00,,,0.00,open2300-1.11,2011-06-22 22:22:00,
2011-06-22 16:32:00,92.1,33.1,29.94,West,270,0.0,2.9,13,0.00,,,0.00,open2300-1.11,2011-06-22 22:32:00,
2011-06-22 16:42:00,91.6,30.9,29.94,West,270,0.0,0.0,12,0.00,,,0.00,open2300-1.11,2011-06-22 22:42:00,
2011-06-22 16:52:00,91.6,32.7,29.94,WSW,247,0.9,2.9,13,0.00,,,0.00,open2300-1.11,2011-06-22 22:52:00,
2011-06-22 17:02:00,91.2,32.4,29.94,WNW,292,2.7,2.7,13,0.00,,,0.00,open2300-1.11,2011-06-22 23:02:00,
2011-06-22 17:12:00,90.7,32.0,29.94,NW,315,0.0,2.7,13,0.00,,,0.00,open2300-1.11,2011-06-22 23:12:00,
2011-06-22 17:22:00,90.3,31.7,29.93,West,270,0.0,2.2,13,0.00,,,0.00,open2300-1.11,2011-06-22 23:22:00,
2011-06-22 17:32:00,89.8,27.8,29.93,SW,225,1.1,1.1,11,0.00,,,0.00,open2300-1.11,2011-06-22 23:32:00,
2011-06-22 17:42:00,89.4,31.0,29.93,WNW,292,0.0,2.5,13,0.00,,,0.00,open2300-1.11,2011-06-22 23:42:00,
2011-06-22 17:52:00,89.1,30.7,29.93,WNW,292,4.9,4.9,13,0.00,,,0.00,open2300-1.11,2011-06-22 23:52:00,
2011-06-22 18:02:00,88.7,30.5,29.92,North,0,0.0,4.9,13,0.00,,,0.00,open2300-1.11,2011-06-23 00:02:00,
2011-06-22 18:12:00,88.3,30.2,29.92,NW,315,0.0,2.5,13,0.00,,,0.00,open2300-1.11,2011-06-23 00:12:00,
2011-06-22 18:22:00,88.0,29.9,29.92,West,270,0.0,2.9,13,0.00,,,0.00,open2300-1.11,2011-06-23 00:22:00,
2011-06-22 18:32:00,87.4,29.5,29.92,WNW,292,0.0,1.8,13,0.00,,,0.00,open2300-1.11,2011-06-23 00:32:00,
2011-06-22 18:42:00,87.1,29.2,29.92,NW,315,0.0,0.7,13,0.00,,,0.00,open2300-1.11,2011-06-23 00:42:00,
2011-06-22 18:52:00,86.7,28.9,29.91,West,270,0.0,0.0,13,0.00,,,0.00,open2300-1.11,2011-06-23 00:52:00,
2011-06-22 19:02:00,86.4,30.3,29.91,WNW,292,0.0,0.0,14,0.00,,,0.00,open2300-1.11,2011-06-23 01:02:00,
2011-06-22 19:12:00,85.8,29.9,29.92,WNW,292,0.0,0.0,14,0.00,,,0.00,open2300-1.11,2011-06-23 01:12:00,
2011-06-22 19:22:00,85.3,29.4,29.91,NW,315,0.0,0.0,14,0.00,,,0.00,open2300-1.11,2011-06-23 01:22:00,
2011-06-22 19:32:00,84.7,30.7,29.91,WNW,292,0.0,0.0,15,0.00,,,0.00,open2300-1.11,2011-06-23 01:32:00,
2011-06-22 19:42:00,84.0,31.9,29.91,WNW,292,0.0,0.0,16,0.00,,,0.00,open2300-1.11,2011-06-23 01:42:00,
2011-06-22 19:52:00,83.5,31.4,29.91,WNW,292,0.0,0.0,16,0.00,,,0.00,open2300-1.11,2011-06-23 01:52:00,
2011-06-22 20:02:00,82.8,32.6,29.92,WNW,292,0.0,0.0,17,0.00,,,0.00,open2300-1.11,2011-06-23 02:02:00,
2011-06-22 20:12:00,82.0,32.0,29.92,WNW,292,0.0,0.0,17,0.00,,,0.00,open2300-1.11,2011-06-23 02:12:00,
2011-06-22 20:22:00,81.1,31.3,29.92,WNW,292,0.0,0.0,17,0.00,,,0.00,open2300-1.11,2011-06-23 02:22:00,
2011-06-22 20:32:00,80.4,30.7,29.92,WNW,292,0.0,0.0,17,0.00,,,0.00,open2300-1.11,2011-06-23 02:32:00,
2011-06-22 20:42:00,79.2,31.3,29.92,WNW,292,0.0,0.0,18,0.00,,,0.00,open2300-1.11,2011-06-23 02:42:00,
2011-06-22 20:52:00,77.9,34.7,29.92,WNW,292,0.0,0.0,21,0.00,,,0.00,open2300-1.11,2011-06-23 02:52:00,
2011-06-22 21:02:00,76.3,35.4,29.92,WNW,292,0.0,0.0,23,0.00,,,0.00,open2300-1.11,2011-06-23 03:02:00,
2011-06-22 21:12:00,75.4,35.7,29.92,WNW,292,0.0,0.0,24,0.00,,,0.00,open2300-1.11,2011-06-23 03:12:00,
2011-06-22 21:22:00,73.9,35.5,29.92,WNW,292,0.0,0.0,25,0.00,,,0.00,open2300-1.11,2011-06-23 03:22:00,
2011-06-22 21:32:00,73.0,35.8,29.93,WNW,292,0.0,0.0,26,0.00,,,0.00,open2300-1.11,2011-06-23 03:32:00,
2011-06-22 21:42:00,72.0,33.8,29.93,WNW,292,0.0,0.0,25,0.00,,,0.00,open2300-1.11,2011-06-23 03:42:00,
2011-06-22 21:52:00,70.9,33.9,29.94,WNW,292,0.0,0.0,26,0.00,,,0.00,open2300-1.11,2011-06-23 03:52:00,
2011-06-22 22:02:00,70.0,33.2,29.94,WNW,292,0.0,0.0,26,0.00,,,0.00,open2300-1.11,2011-06-23 04:02:00,
2011-06-22 22:12:00,69.3,32.5,29.94,WNW,292,0.0,0.0,26,0.00,,,0.00,open2300-1.11,2011-06-23 04:12:00,
2011-06-22 22:22:00,68.7,32.1,29.94,WNW,292,0.0,0.0,26,0.00,,,0.00,open2300-1.11,2011-06-23 04:22:00,
2011-06-22 22:32:00,67.8,31.3,29.94,WNW,292,0.0,0.0,26,0.00,,,0.00,open2300-1.11,2011-06-23 04:32:00,
2011-06-22 22:42:00,67.3,29.9,29.94,WNW,292,0.0,0.0,25,0.00,,,0.00,open2300-1.11,2011-06-23 04:42:00,
2011-06-22 22:52:00,66.6,30.2,29.94,WNW,292,0.0,0.0,26,0.00,,,0.00,open2300-1.11,2011-06-23 04:52:00,
2011-06-22 23:02:00,66.0,29.8,29.94,WNW,292,0.0,0.0,26,0.00,,,0.00,open2300-1.11,2011-06-23 05:02:00,
2011-06-22 23:12:00,65.8,29.6,29.94,WNW,292,0.0,0.0,26,0.00,,,0.00,open2300-1.11,2011-06-23 05:12:00,
2011-06-22 23:22:00,65.8,29.6,29.94,NNE,22,0.0,0.0,26,0.00,,,0.00,open2300-1.11,2011-06-23 05:22:00,
2011-06-22 23:32:00,65.8,28.6,29.94,East,90,0.0,0.0,25,0.00,,,0.00,open2300-1.11,2011-06-23 05:32:00,
2011-06-22 23:42:00,65.5,28.3,29.94,SSE,157,0.0,0.0,25,0.00,,,0.00,open2300-1.11,2011-06-23 05:42:00,
2011-06-22 23:52:00,65.7,28.5,29.94,ESE,112,0.0,1.3,25,0.00,,,0.00,open2300-1.11,2011-06-23 05:52:00,